createdAt,value
2022-12-09T00:00:39.618Z,19.70
2022-12-09T00:03:33.858Z,20.75
2022-12-09T00:06:29.590Z,18.77
2022-12-09T00:09:03.797Z,18.27
2022-12-09T00:11:50.769Z,20.05
2022-12-09T00:14:23.626Z,20.10
2022-12-09T00:17:10.882Z,21.05
2022-12-09T00:19:43.634Z,20.92
2022-12-09T00:22:32.689Z,21.02
2022-12-09T00:25:05.673Z,20.13
2022-12-09T00:27:52.688Z,22.13
2022-12-09T00:30:25.696Z,21.13
2022-12-09T00:33:12.889Z,22.42
2022-12-09T00:35:52.612Z,21.20
2022-12-09T00:38:46.600Z,24.55
2022-12-09T00:41:41.545Z,22.33
2022-12-09T00:44:21.616Z,23.05
2022-12-09T00:47:01.661Z,23.38
2022-12-09T00:49:41.581Z,24.15
2022-12-09T00:52:21.568Z,25.65
2022-12-09T00:54:54.700Z,27.38
2022-12-09T00:57:41.630Z,26.45
2022-12-09T01:00:15.900Z,26.25
2022-12-09T01:03:02.704Z,25.15
2022-12-09T01:05:36.801Z,25.00
2022-12-09T01:08:23.826Z,21.55
2022-12-09T01:10:56.955Z,22.63
2022-12-09T01:13:43.816Z,21.05
2022-12-09T01:16:29.734Z,22.20
2022-12-09T01:19:26.584Z,21.90
2022-12-09T01:22:13.819Z,21.75
2022-12-09T01:24:54.616Z,20.95
2022-12-09T01:27:49.583Z,22.25
2022-12-09T01:30:36.621Z,23.45
2022-12-09T01:33:09.969Z,23.60
2022-12-09T01:35:56.814Z,22.92
2022-12-09T01:38:36.594Z,23.15
2022-12-09T01:41:24.573Z,22.63
2022-12-09T01:44:16.982Z,24.45
2022-12-09T01:47:05.689Z,22.73
2022-12-09T01:49:46.557Z,21.92
2022-12-09T01:52:33.832Z,23.13
2022-12-09T01:55:06.909Z,21.52
2022-12-09T01:57:53.635Z,20.63
2022-12-09T02:00:27.633Z,20.88
2022-12-09T02:03:14.858Z,20.02
2022-12-09T02:05:49.889Z,17.27
2022-12-09T02:08:36.640Z,16.85
2022-12-09T02:11:29.035Z,16.40
2022-12-09T02:14:42.651Z,16.17
2022-12-09T02:17:41.961Z,16.23
2022-12-09T02:20:46.859Z,16.33
2022-12-09T02:23:37.928Z,18.75
2022-12-09T02:26:53.592Z,18.73
2022-12-09T02:30:05.088Z,18.77
2022-12-09T02:33:22.822Z,18.92
2022-12-09T02:36:17.602Z,19.45
2022-12-09T02:38:57.814Z,20.15
2022-12-09T02:41:58.936Z,20.15
2022-12-09T02:44:47.589Z,21.30
2022-12-09T02:47:31.690Z,20.25
2022-12-09T02:50:28.620Z,22.08
2022-12-09T02:53:19.698Z,20.90
2022-12-09T02:55:55.704Z,22.08
2022-12-09T02:58:42.790Z,20.00
2022-12-09T03:01:37.677Z,21.67
2022-12-09T03:04:30.800Z,20.00
2022-12-09T03:07:17.787Z,20.45
2022-12-09T03:10:15.861Z,20.98
2022-12-09T03:12:56.683Z,21.20
2022-12-09T03:15:48.763Z,21.85
2022-12-09T03:18:25.704Z,21.25
2022-12-09T03:21:13.972Z,20.10
2022-12-09T03:23:51.287Z,19.60
2022-12-09T03:26:40.611Z,20.05
2022-12-09T03:29:20.993Z,19.98
2022-12-09T03:32:07.715Z,19.75
2022-12-09T03:34:52.738Z,20.95
2022-12-09T03:37:40.914Z,21.95
2022-12-09T03:40:25.309Z,21.30
2022-12-09T03:43:20.927Z,19.65
2022-12-09T03:45:54.795Z,20.20
2022-12-09T03:48:42.789Z,19.25
2022-12-09T03:51:22.791Z,20.10
2022-12-09T03:54:34.744Z,21.95
2022-12-09T03:57:08.134Z,21.65
2022-12-09T04:00:00.758Z,20.90
2022-12-09T04:02:41.798Z,20.17
2022-12-09T04:05:35.778Z,17.23
2022-12-09T04:08:22.712Z,18.90
2022-12-09T04:10:55.799Z,16.65
2022-12-09T04:13:42.628Z,18.30
2022-12-09T04:16:22.850Z,18.33
2022-12-09T04:19:09.687Z,17.27
2022-12-09T04:21:49.669Z,15.88
2022-12-09T04:24:36.909Z,16.25
2022-12-09T04:27:10.726Z,15.25
2022-12-09T04:29:58.946Z,16.70
2022-12-09T04:32:32.045Z,15.75
2022-12-09T04:35:18.639Z,17.02
2022-12-09T04:37:51.765Z,16.13
2022-12-09T04:40:38.654Z,16.77
2022-12-09T04:43:12.051Z,16.83
2022-12-09T04:45:58.685Z,18.27
2022-12-09T04:48:38.701Z,21.08
2022-12-09T04:51:26.013Z,18.13
2022-12-09T04:53:59.944Z,18.88
2022-12-09T04:56:46.830Z,18.67
2022-12-09T04:59:26.712Z,19.02
2022-12-09T05:02:13.736Z,19.45
2022-12-09T05:04:47.929Z,19.70
2022-12-09T05:07:35.749Z,20.95
2022-12-09T05:10:16.202Z,20.33
2022-12-09T05:13:10.877Z,22.02
2022-12-09T05:16:06.858Z,23.63
2022-12-09T05:18:56.110Z,22.95
2022-12-09T05:21:36.938Z,21.77
2022-12-09T05:24:30.710Z,21.90
2022-12-09T05:27:19.026Z,22.00
2022-12-09T05:29:53.153Z,22.73
2022-12-09T05:32:46.789Z,20.05
2022-12-09T05:35:52.014Z,21.08
2022-12-09T05:38:39.838Z,20.83
2022-12-09T05:41:14.157Z,21.00
2022-12-09T05:44:00.681Z,20.02
2022-12-09T05:46:33.877Z,20.75
2022-12-09T05:49:21.161Z,23.83
2022-12-09T05:51:54.905Z,24.05
2022-12-09T05:54:41.777Z,25.55
2022-12-09T05:57:22.064Z,24.35
2022-12-09T06:00:15.991Z,21.30
2022-12-09T06:03:11.227Z,22.27
2022-12-09T06:06:05.188Z,22.20
2022-12-09T06:08:59.861Z,23.05
2022-12-09T06:11:53.660Z,24.38
2022-12-09T06:14:41.029Z,23.63
2022-12-09T06:17:21.711Z,24.38
2022-12-09T06:20:09.096Z,21.92
2022-12-09T06:22:43.126Z,22.77
2022-12-09T06:25:29.718Z,20.42
2022-12-09T06:28:02.923Z,21.00
2022-12-09T06:30:50.062Z,20.42
2022-12-09T06:33:53.739Z,19.77
2022-12-09T06:36:45.769Z,22.13
2022-12-09T06:39:32.674Z,21.58
2022-12-09T06:42:06.225Z,20.25
2022-12-09T06:44:52.878Z,20.77
2022-12-09T06:47:32.805Z,22.27
2022-12-09T06:50:27.215Z,21.70
2022-12-09T06:53:21.080Z,21.20
2022-12-09T06:56:13.226Z,21.80
2022-12-09T06:58:49.111Z,22.27
2022-12-09T07:01:35.869Z,22.95
2022-12-09T07:04:11.432Z,22.33
2022-12-09T07:06:59.081Z,23.10
2022-12-09T07:09:33.232Z,22.35
2022-12-09T07:12:19.740Z,21.25
2022-12-09T07:14:52.926Z,22.52
2022-12-09T07:17:40.006Z,22.70
2022-12-09T07:20:14.153Z,22.38
2022-12-09T07:23:01.099Z,23.40
2022-12-09T07:25:34.935Z,22.73
2022-12-09T07:28:22.161Z,25.25
2022-12-09T07:31:03.128Z,26.33
2022-12-09T07:33:57.482Z,25.95
2022-12-09T07:36:44.770Z,27.35
2022-12-09T07:39:21.929Z,25.75
2022-12-09T07:42:08.858Z,24.48
2022-12-09T07:44:41.905Z,23.60
2022-12-09T07:47:29.508Z,21.42
2022-12-09T07:50:06.553Z,24.88
2022-12-09T07:52:53.736Z,28.08
2022-12-09T07:55:26.889Z,27.83
2022-12-09T07:58:14.135Z,30.20
2022-12-09T08:00:47.930Z,30.98
2022-12-09T08:03:35.005Z,32.03
2022-12-09T08:06:16.173Z,30.67
2022-12-09T08:09:08.191Z,27.40
2022-12-09T08:11:42.007Z,26.20
2022-12-09T08:14:29.783Z,24.70
2022-12-09T08:17:03.394Z,25.55
2022-12-09T08:19:50.024Z,23.35
2022-12-09T08:22:31.157Z,24.60
2022-12-09T08:25:25.115Z,22.92
2022-12-09T08:28:18.834Z,23.60
2022-12-09T08:31:12.839Z,25.20
2022-12-09T08:34:08.066Z,24.08
2022-12-09T08:37:02.394Z,23.65
2022-12-09T08:39:57.155Z,22.55
2022-12-09T08:42:51.904Z,24.65
2022-12-09T08:45:50.952Z,22.77
2022-12-09T08:48:38.109Z,23.75
2022-12-09T08:51:19.740Z,24.58
2022-12-09T08:54:14.754Z,23.25
2022-12-09T08:57:03.095Z,24.83
2022-12-09T08:59:45.457Z,28.17
2022-12-09T09:02:40.228Z,27.58
2022-12-09T09:05:34.189Z,25.70
2022-12-09T09:08:28.285Z,25.13
2022-12-09T09:11:23.184Z,23.83
2022-12-09T09:13:57.118Z,22.58
2022-12-09T09:16:47.227Z,22.05
2022-12-09T09:19:25.749Z,23.42
2022-12-09T09:22:13.164Z,28.00
2022-12-09T09:24:54.183Z,29.25
2022-12-09T09:27:47.860Z,27.77
2022-12-09T09:30:34.849Z,28.42
2022-12-09T09:33:14.811Z,24.25
2022-12-09T09:36:10.168Z,23.88
2022-12-09T09:38:45.296Z,26.13
2022-12-09T09:41:34.973Z,26.52
2022-12-09T09:44:08.998Z,26.25
2022-12-09T09:46:57.364Z,27.27
2022-12-09T09:50:17.468Z,28.77
2022-12-09T09:53:04.937Z,29.33
2022-12-09T09:55:52.863Z,30.17
2022-12-09T09:58:58.200Z,33.17
2022-12-09T10:01:52.414Z,29.67
2022-12-09T10:04:52.114Z,28.15
2022-12-09T10:07:58.233Z,27.73
2022-12-09T10:11:02.971Z,26.10
2022-12-09T10:14:06.164Z,23.80
2022-12-09T10:17:35.249Z,24.20
2022-12-09T10:20:28.903Z,21.95
2022-12-09T10:23:11.095Z,23.92
2022-12-09T10:26:02.119Z,23.98
2022-12-09T10:28:49.140Z,23.33
2022-12-09T10:31:36.000Z,22.95
2022-12-09T10:34:09.189Z,23.80
2022-12-09T10:36:55.962Z,25.10
2022-12-09T10:39:29.180Z,24.60
2022-12-09T10:42:35.373Z,25.05
2022-12-09T10:45:14.330Z,27.13
2022-12-09T10:48:01.142Z,26.80
2022-12-09T10:50:50.158Z,32.90
2022-12-09T10:53:38.238Z,31.52
2022-12-09T10:56:15.525Z,30.40
2022-12-09T10:59:20.254Z,26.70
2022-12-09T11:02:06.187Z,28.27
2022-12-09T11:04:54.123Z,24.88
2022-12-09T11:07:37.907Z,26.35
2022-12-09T11:10:51.205Z,26.35
2022-12-09T11:13:46.172Z,24.10
2022-12-09T11:16:27.024Z,24.63
2022-12-09T11:19:27.932Z,23.33
2022-12-09T11:22:28.108Z,24.95
2022-12-09T11:25:19.255Z,25.95
2022-12-09T11:28:18.932Z,25.05
2022-12-09T11:31:33.505Z,24.23
2022-12-09T11:34:21.125Z,24.10
2022-12-09T11:37:08.807Z,23.90
2022-12-09T11:39:49.777Z,23.85
2022-12-09T11:42:43.777Z,25.13
2022-12-09T11:45:43.780Z,22.88
2022-12-09T11:48:43.687Z,22.30
2022-12-09T11:51:36.877Z,21.73
2022-12-09T11:54:54.810Z,22.10
2022-12-09T11:58:00.798Z,22.48
2022-12-09T12:00:54.803Z,22.67
2022-12-09T12:03:49.001Z,22.25
2022-12-09T12:06:48.801Z,23.67
2022-12-09T12:10:01.912Z,22.83
2022-12-09T12:13:23.968Z,22.42
2022-12-09T12:16:24.814Z,24.52
2022-12-09T12:19:30.818Z,23.27
2022-12-09T12:22:36.835Z,26.27
2022-12-09T12:25:29.933Z,30.80
2022-12-09T12:28:35.805Z,27.00
2022-12-09T12:31:28.507Z,26.67
2022-12-09T12:34:42.810Z,23.73
2022-12-09T12:37:41.801Z,23.52
2022-12-09T12:40:27.919Z,23.77
2022-12-09T12:43:50.804Z,26.63
2022-12-09T12:46:45.926Z,24.90
2022-12-09T12:50:04.075Z,27.42
2022-12-09T12:52:56.392Z,30.75
2022-12-09T12:56:09.804Z,23.95
2022-12-09T12:58:57.820Z,24.40
2022-12-09T13:02:13.821Z,26.23
2022-12-09T13:05:05.823Z,26.55
2022-12-09T13:08:01.945Z,27.15
2022-12-09T13:11:09.819Z,27.50
2022-12-09T13:14:04.945Z,25.98
2022-12-09T13:16:42.983Z,27.75
2022-12-09T13:19:44.871Z,24.75
2022-12-09T13:22:26.907Z,27.20
2022-12-09T13:25:21.889Z,25.02
2022-12-09T13:28:09.969Z,26.38
2022-12-09T13:31:09.834Z,26.85
2022-12-09T13:33:57.714Z,28.90
2022-12-09T13:36:55.808Z,27.83
2022-12-09T13:39:56.003Z,25.52
2022-12-09T13:43:02.853Z,26.05
2022-12-09T13:45:56.947Z,26.05
2022-12-09T13:48:50.869Z,28.15
2022-12-09T13:51:27.480Z,25.92
2022-12-09T13:54:22.864Z,26.67
2022-12-09T13:57:40.873Z,26.33
2022-12-09T14:00:34.862Z,25.38
2022-12-09T14:03:35.902Z,27.63
2022-12-09T14:06:25.065Z,25.08
2022-12-09T14:09:46.869Z,29.58
2022-12-09T14:12:44.266Z,27.27
2022-12-09T14:15:30.940Z,28.95
2022-12-09T14:18:14.859Z,26.05
2022-12-09T14:21:35.720Z,27.10
2022-12-09T14:24:23.889Z,29.13
2022-12-09T14:26:59.938Z,25.40
2022-12-09T14:30:03.024Z,24.13
2022-12-09T14:32:56.131Z,25.42
2022-12-09T14:35:50.863Z,24.10
2022-12-09T14:39:15.663Z,28.50
2022-12-09T14:42:14.868Z,25.83
2022-12-09T14:45:26.867Z,25.70
2022-12-09T14:48:20.859Z,24.45
2022-12-09T14:51:00.882Z,25.27
2022-12-09T14:53:54.857Z,25.35
2022-12-09T14:56:48.897Z,24.02
2022-12-09T14:59:44.873Z,24.40
2022-12-09T15:02:36.961Z,23.13
2022-12-09T15:05:12.069Z,22.75
2022-12-09T15:07:59.044Z,22.38
2022-12-09T15:10:44.010Z,22.98
2022-12-09T15:13:32.924Z,22.88
2022-12-09T15:16:06.006Z,24.25
2022-12-09T15:18:53.927Z,25.00
2022-12-09T15:21:35.928Z,34.13
2022-12-09T15:24:25.287Z,33.58
2022-12-09T15:27:07.026Z,37.17
2022-12-09T15:29:55.914Z,36.85
2022-12-09T15:32:34.964Z,33.90
2022-12-09T15:35:35.879Z,32.65
2022-12-09T15:38:22.923Z,30.17
2022-12-09T15:41:20.878Z,30.00
2022-12-09T15:44:21.400Z,29.73
2022-12-09T15:47:15.900Z,29.75
2022-12-09T15:49:57.987Z,31.08
2022-12-09T15:53:06.933Z,29.58
2022-12-09T15:56:01.975Z,32.10
2022-12-09T15:58:55.880Z,33.08
2022-12-09T16:01:34.016Z,33.95
2022-12-09T16:04:25.889Z,32.90
2022-12-09T16:07:05.884Z,31.23
2022-12-09T16:10:15.639Z,30.50
2022-12-09T16:12:49.974Z,29.85
2022-12-09T16:16:13.976Z,30.92
2022-12-09T16:18:56.637Z,32.33
2022-12-09T16:21:42.929Z,36.63
2022-12-09T16:24:19.975Z,37.08
2022-12-09T16:27:10.901Z,38.33
2022-12-09T16:29:43.969Z,36.33
2022-12-09T16:32:37.930Z,37.10
2022-12-09T16:35:24.210Z,39.80
2022-12-09T16:38:23.933Z,36.35
2022-12-09T16:41:18.947Z,28.67
2022-12-09T16:44:06.000Z,30.92
2022-12-09T16:46:50.959Z,35.50
2022-12-09T16:49:38.006Z,35.40
2022-12-09T16:52:11.056Z,34.60
2022-12-09T16:54:57.983Z,29.10
2022-12-09T16:57:38.076Z,30.45
2022-12-09T17:00:32.927Z,31.00
2022-12-09T17:03:46.956Z,29.65
2022-12-09T17:06:22.033Z,30.92
2022-12-09T17:09:08.920Z,30.67
2022-12-09T17:11:49.413Z,30.35
2022-12-09T17:14:42.972Z,30.10
2022-12-09T17:17:30.964Z,28.70
2022-12-09T17:20:04.012Z,29.52
2022-12-09T17:22:50.928Z,29.27
2022-12-09T17:25:31.929Z,28.10
2022-12-09T17:28:18.973Z,27.45
2022-12-09T17:30:51.970Z,26.48
2022-12-09T17:33:45.923Z,25.77
2022-12-09T17:36:39.939Z,30.05
2022-12-09T17:39:26.928Z,29.50
2022-12-09T17:42:15.979Z,29.54
2022-12-09T17:45:04.041Z,27.52
2022-12-09T17:47:37.079Z,27.40
2022-12-09T17:50:23.928Z,28.23
2022-12-09T17:52:57.002Z,29.90
2022-12-09T17:55:46.914Z,31.80
2022-12-09T17:58:28.919Z,31.83
2022-12-09T18:01:30.947Z,29.98
2022-12-09T18:04:17.922Z,27.13
2022-12-09T18:06:52.009Z,28.77
2022-12-09T18:09:38.936Z,29.13
2022-12-09T18:12:18.920Z,26.80
2022-12-09T18:15:12.930Z,35.40
2022-12-09T18:18:06.942Z,35.78
2022-12-09T18:21:00.928Z,35.92
2022-12-09T18:23:47.933Z,34.00
2022-12-09T18:26:35.283Z,39.67
2022-12-09T18:29:24.969Z,43.75
2022-12-09T18:32:00.006Z,43.95
2022-12-09T18:34:46.931Z,45.15
2022-12-09T18:37:20.133Z,49.72
2022-12-09T18:40:07.188Z,55.65
2022-12-09T18:42:47.928Z,70.95
2022-12-09T18:45:34.927Z,66.25
2022-12-09T18:48:08.111Z,60.30
2022-12-09T18:50:54.939Z,60.25
2022-12-09T18:53:27.982Z,58.97
2022-12-09T18:56:14.913Z,56.10
2022-12-09T18:59:06.363Z,51.85
2022-12-09T19:01:50.076Z,51.85
2022-12-09T19:04:32.086Z,52.05
2022-12-09T19:07:11.984Z,46.05
2022-12-09T19:09:52.004Z,41.65
2022-12-09T19:12:47.020Z,41.47
2022-12-09T19:15:27.074Z,38.83
2022-12-09T19:18:06.931Z,33.00
2022-12-09T19:20:48.215Z,30.65
2022-12-09T19:23:27.978Z,31.58
2022-12-09T19:26:08.026Z,33.97
2022-12-09T19:28:56.262Z,34.10
2022-12-09T19:31:40.152Z,35.05
2022-12-09T19:34:19.999Z,35.10
2022-12-09T19:37:07.976Z,33.45
2022-12-09T19:39:43.247Z,33.70
2022-12-09T19:42:32.344Z,32.28
2022-12-09T19:45:09.048Z,32.03
2022-12-09T19:47:58.964Z,38.45
2022-12-09T19:50:32.072Z,35.97
2022-12-09T19:53:18.963Z,33.80
2022-12-09T19:55:58.971Z,32.72
2022-12-09T19:58:56.268Z,37.10
2022-12-09T20:01:50.385Z,37.80
2022-12-09T20:07:34.950Z,42.13
2022-12-09T20:10:08.243Z,39.95
2022-12-09T20:12:54.964Z,36.70
2022-12-09T20:15:28.048Z,32.22
2022-12-09T20:18:15.990Z,27.20
2022-12-09T20:20:55.984Z,28.55
2022-12-09T20:23:51.006Z,38.47
2022-12-09T20:26:40.944Z,40.83
2022-12-09T20:29:17.066Z,54.40
2022-12-09T20:32:06.310Z,66.80
2022-12-09T20:35:08.042Z,64.35
2022-12-09T20:38:01.977Z,63.90
2022-12-09T20:40:48.955Z,54.30
2022-12-09T20:43:22.048Z,51.42
2022-12-09T20:46:12.028Z,54.35
2022-12-09T20:48:46.067Z,47.97
2022-12-09T20:51:38.981Z,46.50
2022-12-09T20:54:13.215Z,43.20
2022-12-09T20:56:59.981Z,39.10
2022-12-09T20:59:33.311Z,35.38
2022-12-09T21:02:21.003Z,31.88
2022-12-09T21:04:54.091Z,34.05
2022-12-09T21:07:41.075Z,34.05
2022-12-09T21:10:15.474Z,34.00
2022-12-09T21:13:01.976Z,33.03
2022-12-09T21:15:38.385Z,30.80
2022-12-09T21:18:24.983Z,28.13
2022-12-09T21:21:04.995Z,27.63
2022-12-09T21:24:00.982Z,27.63
2022-12-09T21:26:47.983Z,28.63
2022-12-09T21:29:32.222Z,31.05
2022-12-09T21:32:18.983Z,31.85
2022-12-09T21:34:52.125Z,37.28
2022-12-09T21:37:39.008Z,32.35
2022-12-09T21:40:13.104Z,34.22
2022-12-09T21:42:59.980Z,43.70
2022-12-09T21:45:33.083Z,42.75
2022-12-09T21:48:19.975Z,40.67
2022-12-09T21:51:00.077Z,38.53
2022-12-09T21:53:47.992Z,37.45
2022-12-09T21:56:28.990Z,36.67
2022-12-09T21:59:24.021Z,36.55
2022-12-09T22:02:18.012Z,37.60
2022-12-09T22:05:05.042Z,41.97
2022-12-09T22:07:38.144Z,44.10
2022-12-09T22:10:24.992Z,47.50
2022-12-09T22:12:58.079Z,51.10
2022-12-09T22:15:45.004Z,51.28
2022-12-09T22:18:18.067Z,50.72
2022-12-09T22:21:26.593Z,47.72
2022-12-09T22:24:11.988Z,40.05
2022-12-09T22:26:59.003Z,35.55
2022-12-09T22:29:38.987Z,34.20
2022-12-09T22:32:37.796Z,40.60
2022-12-09T22:35:33.995Z,39.75
2022-12-09T22:38:28.043Z,40.20
2022-12-09T22:41:26.992Z,37.08
2022-12-09T22:44:20.990Z,35.25
2022-12-09T22:47:15.019Z,36.03
2022-12-09T22:50:02.000Z,35.10
2022-12-09T22:52:36.096Z,36.03
2022-12-09T22:55:23.009Z,32.58
2022-12-09T22:57:57.093Z,30.00
2022-12-09T23:00:44.016Z,30.67
2022-12-09T23:03:18.114Z,27.27
2022-12-09T23:06:08.020Z,27.90
2022-12-09T23:08:49.003Z,27.40
2022-12-09T23:11:36.022Z,26.70
2022-12-09T23:14:16.038Z,26.35
2022-12-09T23:17:10.007Z,24.20
2022-12-09T23:19:57.003Z,23.35
2022-12-09T23:22:37.004Z,24.38
2022-12-09T23:25:31.024Z,22.48
2022-12-09T23:28:25.026Z,22.90
2022-12-09T23:31:21.091Z,19.98
2022-12-09T23:34:16.020Z,19.88
2022-12-09T23:37:03.034Z,19.58
2022-12-09T23:39:36.176Z,19.83
2022-12-09T23:42:23.012Z,21.52
2022-12-09T23:45:03.038Z,20.98
2022-12-09T23:47:57.021Z,21.65
2022-12-09T23:50:44.038Z,20.63
2022-12-09T23:53:17.084Z,20.45
2022-12-09T23:56:04.096Z,19.25
2022-12-09T23:58:37.104Z,20.13
